10°C
Woerden, The Nederlands
Taal:  Nederlands
Updated07/12/2019 10:50 
 
WeerStation Woerden Historical Data
 
Daily Summary for December 07, 2019 Units:  Metric    English   Both
Daily Weekly Monthly Yearly Custom
  Current: High: Low: Average:
Temperature: 9.6 °C 10.0 °C 9.3 °C 9.7 °C
Dew Point: 6.5 °C 6.8 °C 5.9 °C 6.5 °C
Humidity: 81% 81% 77% 81%
Wind Speed: 8.0km/h 37.0km/h 4.8km/h 21.3km/h
Wind Gust: 19.3km/h 45.1km/h - -
WindSW - - West
Pressure: 1011.2 hPa 1011.2 hPa 1002.6 hPa -
Precipitation: 0.0 mm      
Historical Graphs
 
 
Tabular Data for December 07, 2019
Time Temperature Dew Point Pressure Wind Wind Speed Wind Gust Humidity Rainfall Rate (Hourly) solar
00:00 9.8 °C 6.0 °C 1002.6 hPa West 24.1 km/h 41.8 km/h 77% 3.8 mm 0.00 W/m2
00:05 9.9 °C 6.2 °C 1002.7 hPa West 31.5 km/h 24.3 km/h 78% 3.0 mm 0.00 W/m2
00:10 9.9 °C 6.4 °C 1002.8 hPa West 22.5 km/h 37.0 km/h 79% 2.4 mm 0.00 W/m2
00:15 9.8 °C 6.4 °C 1003.0 hPa WNW 35.4 km/h 21.1 km/h 79% 1.4 mm 0.00 W/m2
00:20 9.9 °C 6.4 °C 1003.1 hPa West 20.9 km/h 35.4 km/h 79% 1.0 mm 0.00 W/m2
00:25 9.9 °C 6.4 °C 1003.2 hPa West 31.5 km/h 25.4 km/h 79% 0.6 mm 0.00 W/m2
00:30 10.0 °C 6.7 °C 1003.2 hPa West 20.9 km/h 45.1 km/h 80% 0.2 mm 0.00 W/m2
00:35 9.9 °C 6.7 °C 1003.2 hPa West 31.5 km/h 20.1 km/h 80% 0.0 mm 0.00 W/m2
00:40 9.9 °C 6.6 °C 1003.2 hPa West 20.9 km/h 32.2 km/h 80% 0.0 mm 0.00 W/m2
00:45 9.9 °C 6.7 °C 1003.3 hPa West 22.2 km/h 18.2 km/h 80% 0.0 mm 0.00 W/m2
00:50 9.8 °C 6.6 °C 1003.3 hPa West 22.5 km/h 35.4 km/h 80% 0.0 mm 0.00 W/m2
00:55 9.7 °C 6.2 °C 1003.3 hPa West 27.8 km/h 20.3 km/h 79% 0.0 mm 0.00 W/m2
01:00 9.6 °C 5.9 °C 1003.4 hPa West 22.5 km/h 35.4 km/h 78% 0.0 mm 0.00 W/m2
01:05 9.6 °C 5.9 °C 1003.5 hPa West 25.9 km/h 17.5 km/h 78% 0.0 mm 0.00 W/m2
01:10 9.6 °C 5.9 °C 1003.6 hPa West 20.9 km/h 32.2 km/h 78% 0.0 mm 0.00 W/m2
01:15 9.7 °C 6.2 °C 1003.6 hPa West 25.9 km/h 20.3 km/h 79% 0.0 mm 0.00 W/m2
01:20 9.7 °C 6.2 °C 1003.6 hPa West 22.5 km/h 33.8 km/h 79% 0.0 mm 0.00 W/m2
01:25 9.8 °C 6.5 °C 1003.8 hPa West 25.9 km/h 20.3 km/h 80% 0.0 mm 0.00 W/m2
01:30 9.8 °C 6.5 °C 1003.9 hPa West 25.7 km/h 35.4 km/h 80% 0.0 mm 0.00 W/m2
01:35 9.9 °C 6.6 °C 1003.9 hPa West 27.8 km/h 20.9 km/h 80% 0.0 mm 0.00 W/m2
01:40 9.8 °C 6.6 °C 1004.1 hPa West 20.9 km/h 37.0 km/h 80% 0.0 mm 0.00 W/m2
01:45 9.8 °C 6.6 °C 1004.0 hPa WSW 29.6 km/h 22.5 km/h 80% 0.0 mm 0.00 W/m2
01:50 9.8 °C 6.6 °C 1004.2 hPa West 22.5 km/h 33.8 km/h 80% 0.0 mm 0.00 W/m2
01:55 9.8 °C 6.5 °C 1004.3 hPa West 30.6 km/h 17.7 km/h 80% 0.0 mm 0.00 W/m2
02:00 9.8 °C 6.6 °C 1004.3 hPa West 20.9 km/h 32.2 km/h 80% 0.0 mm 0.00 W/m2
02:05 9.8 °C 6.7 °C 1004.4 hPa West 31.5 km/h 23.0 km/h 81% 0.0 mm 0.00 W/m2
02:10 9.8 °C 6.7 °C 1004.5 hPa West 24.1 km/h 38.6 km/h 81% 0.0 mm 0.00 W/m2
02:15 9.8 °C 6.7 °C 1004.7 hPa West 29.6 km/h 20.8 km/h 81% 0.0 mm 0.00 W/m2
02:20 9.8 °C 6.7 °C 1004.8 hPa West 24.1 km/h 19.3 km/h 81% 0.0 mm 0.00 W/m2
02:25 9.8 °C 6.7 °C 1005.0 hPa WSW 31.5 km/h 20.8 km/h 81% 0.0 mm 0.00 W/m2
02:30 9.8 °C 6.7 °C 1005.0 hPa West 20.9 km/h 33.8 km/h 81% 0.0 mm 0.00 W/m2
02:35 9.8 °C 6.7 °C 1005.1 hPa WSW 27.8 km/h 20.6 km/h 81% 0.0 mm 0.00 W/m2
02:40 9.9 °C 6.8 °C 1005.3 hPa West 24.1 km/h 35.4 km/h 81% 0.0 mm 0.00 W/m2
02:45 9.8 °C 6.7 °C 1005.3 hPa WSW 25.9 km/h 18.0 km/h 81% 0.0 mm 0.00 W/m2
02:50 9.8 °C 6.7 °C 1005.4 hPa West 19.3 km/h 29.0 km/h 81% 0.0 mm 0.00 W/m2
02:55 9.8 °C 6.7 °C 1005.3 hPa West 20.4 km/h 16.4 km/h 81% 0.0 mm 0.00 W/m2
03:00 9.8 °C 6.6 °C 1005.4 hPa WSW 20.9 km/h 29.0 km/h 80% 0.0 mm 0.00 W/m2
03:05 9.8 °C 6.5 °C 1005.5 hPa West 22.5 km/h 18.3 km/h 80% 0.0 mm 0.00 W/m2
03:10 9.7 °C 6.4 °C 1005.6 hPa West 14.5 km/h 25.7 km/h 80% 0.0 mm 0.00 W/m2
03:15 9.7 °C 6.4 °C 1005.6 hPa WSW 25.9 km/h 18.0 km/h 80% 0.0 mm 0.00 W/m2
03:20 9.7 °C 6.4 °C 1005.7 hPa West 22.5 km/h 29.0 km/h 80% 0.0 mm 0.00 W/m2
03:25 9.8 °C 6.7 °C 1005.8 hPa WSW 37.0 km/h 24.8 km/h 81% 0.0 mm 0.00 W/m2
03:30 9.8 °C 6.7 °C 1006.0 hPa West 19.3 km/h 37.0 km/h 81% 0.0 mm 0.00 W/m2
03:35 9.8 °C 6.7 °C 1006.1 hPa West 24.1 km/h 18.8 km/h 81% 0.0 mm 0.00 W/m2
03:40 9.8 °C 6.7 °C 1006.1 hPa West 22.2 km/h 16.4 km/h 81% 0.0 mm 0.00 W/m2
03:45 9.8 °C 6.7 °C 1006.2 hPa West 27.8 km/h 20.0 km/h 81% 0.0 mm 0.00 W/m2
03:50 9.8 °C 6.7 °C 1006.2 hPa West 20.9 km/h 32.2 km/h 81% 0.0 mm 0.00 W/m2
03:55 9.8 °C 6.7 °C 1006.3 hPa West 22.2 km/h 16.9 km/h 81% 0.0 mm 0.00 W/m2
04:00 9.8 °C 6.7 °C 1006.4 hPa West 19.3 km/h 27.4 km/h 81% 0.0 mm 0.00 W/m2
04:05 9.7 °C 6.6 °C 1006.4 hPa WSW 22.2 km/h 16.6 km/h 81% 0.0 mm 0.00 W/m2
04:10 9.7 °C 6.6 °C 1006.5 hPa West 20.9 km/h 32.2 km/h 81% 0.0 mm 0.00 W/m2
04:15 9.7 °C 6.6 °C 1006.8 hPa WSW 27.8 km/h 20.8 km/h 81% 0.0 mm 0.00 W/m2
04:20 9.7 °C 6.6 °C 1006.9 hPa West 20.9 km/h 32.2 km/h 81% 0.0 mm 0.00 W/m2
04:25 9.7 °C 6.6 °C 1006.9 hPa West 27.8 km/h 19.5 km/h 81% 0.0 mm 0.00 W/m2
04:30 9.7 °C 6.6 °C 1006.9 hPa West 20.9 km/h 32.2 km/h 81% 0.0 mm 0.00 W/m2
04:35 9.7 °C 6.6 °C 1007.0 hPa WNW 25.9 km/h 19.1 km/h 81% 0.0 mm 0.00 W/m2
04:40 9.7 °C 6.6 °C 1007.0 hPa West 20.9 km/h 32.2 km/h 81% 0.0 mm 0.00 W/m2
04:45 9.7 °C 6.6 °C 1007.0 hPa West 25.9 km/h 18.3 km/h 81% 0.0 mm 0.00 W/m2
04:50 9.7 °C 6.6 °C 1007.1 hPa West 20.9 km/h 32.2 km/h 81% 0.0 mm 0.00 W/m2
04:55 9.7 °C 6.6 °C 1007.2 hPa West 29.6 km/h 23.7 km/h 81% 0.0 mm 0.00 W/m2
05:00 9.7 °C 6.6 °C 1007.2 hPa West 19.3 km/h 29.0 km/h 81% 0.0 mm 0.00 W/m2
05:05 9.7 °C 6.6 °C 1007.2 hPa NW 25.9 km/h 19.0 km/h 81% 0.0 mm 0.00 W/m2
05:10 9.7 °C 6.6 °C 1007.3 hPa West 24.1 km/h 33.8 km/h 81% 0.0 mm 0.00 W/m2
05:15 9.7 °C 6.6 °C 1007.3 hPa West 31.5 km/h 24.5 km/h 81% 0.0 mm 0.00 W/m2
05:20 9.8 °C 6.7 °C 1007.3 hPa West 20.9 km/h 32.2 km/h 81% 0.0 mm 0.00 W/m2
05:25 9.7 °C 6.6 °C 1007.4 hPa West 27.8 km/h 21.1 km/h 81% 0.0 mm 0.00 W/m2
05:30 9.8 °C 6.7 °C 1007.5 hPa West 22.5 km/h 32.2 km/h 81% 0.0 mm 0.00 W/m2
05:35 9.7 °C 6.6 °C 1007.6 hPa WSW 29.6 km/h 23.2 km/h 81% 0.0 mm 0.00 W/m2
05:40 9.7 °C 6.6 °C 1007.6 hPa West 19.3 km/h 32.2 km/h 81% 0.0 mm 0.00 W/m2
05:45 9.7 °C 6.6 °C 1007.7 hPa WNW 27.8 km/h 19.3 km/h 81% 0.0 mm 0.00 W/m2
05:50 9.7 °C 6.6 °C 1007.7 hPa West 22.5 km/h 32.2 km/h 81% 0.0 mm 0.00 W/m2
05:55 9.7 °C 6.6 °C 1007.7 hPa West 25.9 km/h 18.3 km/h 81% 0.0 mm 0.00 W/m2
06:00 9.6 °C 6.5 °C 1007.7 hPa West 16.1 km/h 32.2 km/h 81% 0.0 mm 0.00 W/m2
06:05 9.6 °C 6.5 °C 1007.7 hPa WSW 24.1 km/h 16.9 km/h 81% 0.0 mm 0.00 W/m2
06:10 9.6 °C 6.5 °C 1007.8 hPa West 19.3 km/h 27.4 km/h 81% 0.0 mm 0.00 W/m2
06:15 9.6 °C 6.5 °C 1008.0 hPa WSW 25.9 km/h 18.8 km/h 81% 0.0 mm 0.00 W/m2
06:20 9.6 °C 6.5 °C 1008.0 hPa West 19.3 km/h 32.2 km/h 81% 0.0 mm 0.00 W/m2
06:25 9.6 °C 6.4 °C 1008.0 hPa WSW 20.4 km/h 15.9 km/h 81% 0.0 mm 0.00 W/m2
06:30 9.5 °C 6.4 °C 1008.1 hPa West 19.3 km/h 24.1 km/h 81% 0.0 mm 0.00 W/m2
06:35 9.5 °C 6.4 °C 1008.2 hPa WNW 16.7 km/h 12.9 km/h 81% 0.0 mm 0.00 W/m2
06:40 9.5 °C 6.4 °C 1008.3 hPa West 16.1 km/h 24.1 km/h 81% 0.0 mm 0.00 W/m2
06:45 9.4 °C 6.3 °C 1008.5 hPa SSW 25.9 km/h 8.5 km/h 81% 0.0 mm 0.00 W/m2
06:50 9.4 °C 6.3 °C 1008.5 hPa WSW 9.7 km/h 25.7 km/h 81% 0.0 mm 0.00 W/m2
06:55 9.4 °C 6.3 °C 1008.7 hPa WSW 25.9 km/h 18.8 km/h 81% 0.0 mm 0.00 W/m2
07:00 9.5 °C 6.4 °C 1008.7 hPa West 16.1 km/h 25.7 km/h 81% 0.0 mm 0.00 W/m2
07:05 9.5 °C 6.4 °C 1008.7 hPa WSW 25.9 km/h 20.3 km/h 81% 0.0 mm 0.00 W/m2
07:10 9.5 °C 6.4 °C 1008.8 hPa WSW 16.1 km/h 25.7 km/h 81% 0.0 mm 0.00 W/m2
07:15 9.4 °C 6.3 °C 1008.9 hPa WSW 22.2 km/h 16.4 km/h 81% 0.0 mm 0.00 W/m2
07:20 9.4 °C 6.3 °C 1008.9 hPa WSW 16.1 km/h 22.5 km/h 81% 0.0 mm 0.00 W/m2
07:25 9.4 °C 6.3 °C 1009.0 hPa West 18.5 km/h 13.5 km/h 81% 0.0 mm 0.00 W/m2
07:30 9.4 °C 6.3 °C 1009.0 hPa WSW 11.3 km/h 22.5 km/h 81% 0.0 mm 0.00 W/m2
07:35 9.4 °C 6.3 °C 1009.1 hPa WSW 18.5 km/h 12.7 km/h 81% 0.0 mm 0.00 W/m2
07:40 9.4 °C 6.3 °C 1009.1 hPa West 12.9 km/h 22.5 km/h 81% 0.0 mm 0.00 W/m2
07:45 9.4 °C 6.3 °C 1009.2 hPa WSW 14.8 km/h 7.1 km/h 81% 0.0 mm 0.00 W/m2
07:50 9.4 °C 6.3 °C 1009.2 hPa WSW 8.0 km/h 19.3 km/h 81% 0.0 mm 0.00 W/m2
07:55 9.3 °C 6.2 °C 1009.3 hPa SW 14.8 km/h 8.7 km/h 81% 0.0 mm 0.00 W/m2
08:00 9.4 °C 6.3 °C 1009.3 hPa WSW 16.1 km/h 25.7 km/h 81% 0.0 mm 0.00 W/m2
08:05 9.5 °C 6.2 °C 1009.4 hPa WSW 22.2 km/h 16.7 km/h 80% 0.0 mm 0.00 W/m2
08:10 9.6 °C 6.4 °C 1009.4 hPa WSW 20.4 km/h 15.3 km/h 81% 0.0 mm 0.00 W/m2
08:15 9.6 °C 6.5 °C 1009.4 hPa West 32.2 km/h 22.5 km/h 81% 0.0 mm 0.00 W/m2
08:20 9.7 °C 6.6 °C 1009.5 hPa West 20.9 km/h 32.2 km/h 81% 0.0 mm 0.00 W/m2
08:25 9.7 °C 6.6 °C 1009.6 hPa West 24.1 km/h 19.1 km/h 81% 0.0 mm 0.00 W/m2
08:30 9.7 °C 6.6 °C 1009.7 hPa WSW 22.2 km/h 15.9 km/h 81% 0.0 mm 0.00 W/m2
08:35 9.6 °C 6.5 °C 1009.8 hPa West 25.9 km/h 20.0 km/h 81% 0.0 mm 0.00 W/m2
08:40 9.6 °C 6.5 °C 1009.9 hPa West 16.1 km/h 25.7 km/h 81% 0.0 mm 0.00 W/m2
08:45 9.7 °C 6.6 °C 1010.0 hPa West 16.7 km/h 13.0 km/h 81% 0.0 mm 0.00 W/m2
08:50 9.6 °C 6.5 °C 1009.9 hPa West 19.3 km/h 24.1 km/h 81% 0.0 mm 5.00 W/m2
08:55 9.7 °C 6.6 °C 1010.0 hPa West 20.4 km/h 15.8 km/h 81% 0.0 mm 5.00 W/m2
09:00 9.6 °C 6.5 °C 1010.2 hPa West 19.3 km/h 25.7 km/h 81% 0.0 mm 7.00 W/m2
09:05 9.6 °C 6.5 °C 1010.4 hPa WSW 20.4 km/h 17.2 km/h 81% 0.0 mm 7.00 W/m2
09:10 9.6 °C 6.4 °C 1010.4 hPa West 14.5 km/h 24.1 km/h 81% 0.0 mm 5.00 W/m2
09:15 9.6 °C 6.5 °C 1010.3 hPa WSW 18.5 km/h 13.7 km/h 81% 0.0 mm 5.00 W/m2
09:20 9.6 °C 6.4 °C 1010.3 hPa West 14.5 km/h 20.9 km/h 81% 0.0 mm 7.00 W/m2
09:25 9.6 °C 6.4 °C 1010.4 hPa West 22.2 km/h 17.1 km/h 81% 0.0 mm 7.00 W/m2
09:30 9.6 °C 6.5 °C 1010.5 hPa WSW 18.5 km/h 15.9 km/h 81% 0.0 mm 12.00 W/m2
09:35 9.6 °C 6.4 °C 1010.5 hPa WNW 18.5 km/h 14.2 km/h 81% 0.0 mm 16.00 W/m2
09:40 9.6 °C 6.4 °C 1010.5 hPa WSW 9.7 km/h 19.3 km/h 81% 0.0 mm 23.00 W/m2
09:45 9.5 °C 6.2 °C 1010.6 hPa WSW 16.7 km/h 12.1 km/h 80% 0.0 mm 19.00 W/m2
09:50 9.5 °C 6.4 °C 1010.7 hPa WSW 9.7 km/h 19.3 km/h 81% 0.0 mm 19.00 W/m2
09:55 9.5 °C 6.4 °C 1010.8 hPa WSW 18.5 km/h 9.0 km/h 81% 0.0 mm 21.00 W/m2
10:00 9.5 °C 6.4 °C 1010.9 hPa WSW 9.7 km/h 19.3 km/h 81% 0.0 mm 23.00 W/m2
10:05 9.5 °C 6.4 °C 1010.9 hPa West 16.7 km/h 10.0 km/h 81% 0.0 mm 19.00 W/m2
10:10 9.6 °C 6.4 °C 1011.0 hPa West 8.0 km/h 16.1 km/h 81% 0.0 mm 18.00 W/m2
10:15 9.6 °C 6.4 °C 1011.0 hPa West 16.7 km/h 7.9 km/h 81% 0.0 mm 23.00 W/m2
10:20 9.6 °C 6.5 °C 1011.0 hPa WSW 4.8 km/h 19.3 km/h 81% 0.0 mm 28.00 W/m2
10:25 9.6 °C 6.5 °C 1011.1 hPa West 13.0 km/h 6.8 km/h 81% 0.0 mm 23.00 W/m2
10:30 9.6 °C 6.4 °C 1011.1 hPa NW 11.1 km/h 6.3 km/h 81% 0.0 mm 25.00 W/m2
10:35 9.6 °C 6.5 °C 1011.1 hPa WSW 16.7 km/h 10.9 km/h 81% 0.0 mm 28.00 W/m2
10:40 9.6 °C 6.5 °C 1011.1 hPa WSW 4.8 km/h 17.7 km/h 81% 0.0 mm 32.00 W/m2
10:45 9.6 °C 6.5 °C 1011.2 hPa SW 14.8 km/h 7.6 km/h 81% 0.0 mm 40.00 W/m2
10:50 9.6 °C 6.5 °C 1011.2 hPa SW 8.0 km/h 19.3 km/h 81% 0.0 mm 40.00 W/m2
Juneau County Weather
Compliments of Weather Underground - 2 mb